Time,TemperatureF,DewpointF,PressureIn,WindDirection,WindDirectionDegrees,WindSpeedMPH,WindSpeedGustMPH,Humidity,HourlyPrecipIn,Conditions,Clouds,dailyrainin,SolarRadiationWatts/m^2,SoftwareType,DateUTC
2013-02-18 00:02:00,13.0,-1.0,-100.00,South,178,5.0,12.0,53,0.00,,,0.00,0.000000,,2013-02-18 05:02:00,
2013-02-18 00:11:00,13.0,-1.0,-100.00,South,178,5.0,12.0,53,0.00,,,0.00,0.000000,,2013-02-18 05:11:00,
2013-02-18 00:32:00,13.0,-1.0,-100.00,South,177,5.0,11.0,53,0.00,,,0.00,0.000000,,2013-02-18 05:32:00,
2013-02-18 00:42:00,13.0,-1.0,-100.00,South,177,5.0,11.0,53,0.00,,,0.00,0.000000,,2013-02-18 05:42:00,
2013-02-18 00:52:00,13.0,-1.0,-100.00,South,177,5.0,11.0,53,0.00,,,0.00,0.000000,,2013-02-18 05:52:00,
2013-02-18 01:02:00,13.0,-1.0,-100.00,South,177,5.0,11.0,53,0.00,,,0.00,0.000000,,2013-02-18 06:02:00,
2013-02-18 01:11:00,13.0,-1.0,-100.00,South,177,5.0,11.0,53,0.00,,,0.00,0.000000,,2013-02-18 06:11:00,
2013-02-18 01:42:00,14.0,0.0,-100.00,South,191,5.0,12.0,53,0.00,,,0.00,0.000000,,2013-02-18 06:42:00,
2013-02-18 01:52:00,14.0,0.0,-100.00,South,191,5.0,12.0,53,0.00,,,0.00,0.000000,,2013-02-18 06:52:00,
2013-02-18 02:01:00,14.0,0.0,-100.00,South,191,5.0,12.0,53,0.00,,,0.00,0.000000,,2013-02-18 07:01:00,
2013-02-18 02:11:00,14.0,0.0,-100.00,South,191,5.0,12.0,53,0.00,,,0.00,0.000000,,2013-02-18 07:11:00,
2013-02-18 02:42:00,16.0,3.0,-100.00,South,186,6.0,13.0,55,0.00,,,0.00,0.000000,,2013-02-18 07:42:00,
2013-02-18 02:52:00,16.0,3.0,-100.00,South,186,6.0,13.0,55,0.00,,,0.00,0.000000,,2013-02-18 07:52:00,
2013-02-18 03:01:00,16.0,3.0,-100.00,South,186,6.0,13.0,55,0.00,,,0.00,0.000000,,2013-02-18 08:01:00,
2013-02-18 03:11:00,16.0,3.0,-100.00,South,186,6.0,13.0,55,0.00,,,0.00,0.000000,,2013-02-18 08:11:00,
2013-02-18 03:33:00,18.0,6.0,-100.00,South,181,6.0,13.0,60,0.00,,,0.00,0.000000,,2013-02-18 08:33:00,
2013-02-18 03:42:00,18.0,6.0,-100.00,South,181,6.0,13.0,60,0.00,,,0.00,0.000000,,2013-02-18 08:42:00,
2013-02-18 03:52:00,18.0,6.0,-100.00,South,181,6.0,13.0,60,0.00,,,0.00,0.000000,,2013-02-18 08:52:00,
2013-02-18 04:02:00,18.0,6.0,-100.00,South,181,6.0,13.0,60,0.00,,,0.00,0.000000,,2013-02-18 09:02:00,
2013-02-18 04:11:00,18.0,6.0,-100.00,South,181,6.0,13.0,60,0.00,,,0.00,0.000000,,2013-02-18 09:11:00,
2013-02-18 04:32:00,19.0,11.0,-100.00,South,177,6.0,16.0,72,0.00,,,0.00,0.000000,,2013-02-18 09:32:00,
2013-02-18 04:42:00,19.0,11.0,-100.00,South,177,6.0,16.0,72,0.00,,,0.00,0.000000,,2013-02-18 09:42:00,
2013-02-18 04:52:00,19.0,11.0,-100.00,South,177,6.0,16.0,72,0.00,,,0.00,0.000000,,2013-02-18 09:52:00,
2013-02-18 05:01:00,19.0,11.0,-100.00,South,177,6.0,16.0,72,0.00,,,0.00,0.000000,,2013-02-18 10:01:00,
2013-02-18 05:11:00,19.0,11.0,-100.00,South,177,6.0,16.0,72,0.00,,,0.00,0.000000,,2013-02-18 10:11:00,
2013-02-18 05:42:00,20.0,17.0,-100.00,SSE,160,8.0,15.0,87,0.00,,,0.00,0.000000,,2013-02-18 10:42:00,
2013-02-18 05:53:00,20.0,17.0,-100.00,SSE,160,8.0,15.0,87,0.00,,,0.00,0.000000,,2013-02-18 10:53:00,
2013-02-18 06:01:00,20.0,17.0,-100.00,SSE,160,8.0,15.0,87,0.00,,,0.00,0.000000,,2013-02-18 11:01:00,
2013-02-18 06:11:00,20.0,17.0,-100.00,SSE,160,8.0,15.0,87,0.00,,,0.00,0.000000,,2013-02-18 11:11:00,
2013-02-18 06:43:00,21.0,19.0,-100.00,SSE,164,8.0,17.0,91,0.00,,,0.00,0.000000,,2013-02-18 11:43:00,
2013-02-18 06:53:00,21.0,19.0,-100.00,SSE,164,8.0,17.0,91,0.00,,,0.00,0.000000,,2013-02-18 11:53:00,
2013-02-18 07:02:00,21.0,19.0,-100.00,SSE,164,8.0,17.0,91,0.00,,,0.00,0.000000,,2013-02-18 12:02:00,
2013-02-18 07:11:00,21.0,19.0,-100.00,SSE,164,8.0,17.0,91,0.00,,,0.00,0.000000,,2013-02-18 12:11:00,
2013-02-18 07:12:00,23.0,22.0,-100.00,SSE,155,7.0,17.0,94,0.00,,,0.00,0.000000,,2013-02-18 12:12:00,
2013-02-18 07:32:00,23.0,22.0,-100.00,SSE,155,7.0,17.0,94,0.00,,,0.00,0.000000,,2013-02-18 12:32:00,
2013-02-18 07:42:00,23.0,22.0,-100.00,SSE,155,7.0,17.0,94,0.00,,,0.00,0.000000,,2013-02-18 12:42:00,
2013-02-18 08:03:00,23.0,22.0,-100.00,SSE,155,7.0,17.0,94,0.00,,,0.00,0.000000,,2013-02-18 13:03:00,
2013-02-18 08:42:00,25.0,23.0,-100.00,SSE,165,8.0,18.0,92,0.00,,,-99.99,1.000000,,2013-02-18 13:42:00,
2013-02-18 08:53:00,25.0,23.0,-100.00,SSE,165,8.0,18.0,92,0.00,,,-99.99,1.000000,,2013-02-18 13:53:00,
2013-02-18 09:02:00,25.0,23.0,-100.00,SSE,165,8.0,18.0,92,0.00,,,-99.99,1.000000,,2013-02-18 14:02:00,
2013-02-18 09:11:00,25.0,23.0,-100.00,SSE,165,8.0,18.0,92,0.00,,,-99.99,1.000000,,2013-02-18 14:11:00,
2013-02-18 09:34:00,26.0,22.0,-100.00,SSE,160,9.0,19.0,86,0.00,,,0.00,19.000000,,2013-02-18 14:34:00,
2013-02-18 09:42:00,26.0,22.0,-100.00,SSE,160,9.0,19.0,86,0.00,,,0.00,19.000000,,2013-02-18 14:42:00,
2013-02-18 09:53:00,26.0,22.0,-100.00,SSE,160,9.0,19.0,86,0.00,,,0.00,19.000000,,2013-02-18 14:53:00,
2013-02-18 10:02:00,26.0,22.0,-100.00,SSE,160,9.0,19.0,86,0.00,,,0.00,19.000000,,2013-02-18 15:02:00,
2013-02-18 10:11:00,26.0,22.0,-100.00,SSE,160,9.0,19.0,86,0.00,,,0.00,19.000000,,2013-02-18 15:11:00,
2013-02-18 10:12:00,28.0,23.0,-100.00,SSE,165,9.0,18.0,82,0.00,,,0.00,77.000000,,2013-02-18 15:12:00,
2013-02-18 10:42:00,28.0,23.0,-100.00,SSE,165,9.0,18.0,82,0.00,,,0.00,77.000000,,2013-02-18 15:42:00,
2013-02-18 10:53:00,28.0,23.0,-100.00,SSE,165,9.0,18.0,82,0.00,,,0.00,77.000000,,2013-02-18 15:53:00,
2013-02-18 11:03:00,28.0,23.0,-100.00,SSE,165,9.0,18.0,82,0.00,,,0.00,77.000000,,2013-02-18 16:03:00,
2013-02-18 11:12:00,29.0,24.0,-100.00,SSE,168,8.0,18.0,80,0.00,,,0.00,114.000000,,2013-02-18 16:12:00,
2013-02-18 11:33:00,29.0,24.0,-100.00,SSE,168,8.0,18.0,80,0.00,,,0.00,114.000000,,2013-02-18 16:33:00,
2013-02-18 11:43:00,29.0,24.0,-100.00,SSE,168,8.0,18.0,80,0.00,,,0.00,114.000000,,2013-02-18 16:43:00,
2013-02-18 11:53:00,29.0,24.0,-100.00,SSE,168,8.0,18.0,80,0.00,,,0.00,114.000000,,2013-02-18 16:53:00,
2013-02-18 12:03:00,29.0,24.0,-100.00,SSE,168,8.0,18.0,80,0.00,,,0.00,114.000000,,2013-02-18 17:03:00,
2013-02-18 12:12:00,31.0,25.0,-100.00,SSE,160,7.0,20.0,78,0.00,,,0.00,133.000000,,2013-02-18 17:12:00,
2013-02-18 12:43:00,31.0,25.0,-100.00,SSE,160,7.0,20.0,78,0.00,,,0.00,133.000000,,2013-02-18 17:43:00,
2013-02-18 12:53:00,31.0,25.0,-100.00,SSE,160,7.0,20.0,78,0.00,,,0.00,133.000000,,2013-02-18 17:53:00,
2013-02-18 13:02:00,31.0,25.0,-100.00,SSE,160,7.0,20.0,78,0.00,,,0.00,133.000000,,2013-02-18 18:02:00,
2013-02-18 13:12:00,31.0,26.0,-100.00,SSE,159,8.0,16.0,80,0.00,,,0.00,126.000000,,2013-02-18 18:12:00,
2013-02-18 13:33:00,31.0,26.0,-100.00,SSE,159,8.0,16.0,80,0.00,,,0.00,126.000000,,2013-02-18 18:33:00,
2013-02-18 13:43:00,31.0,26.0,-100.00,SSE,159,8.0,16.0,80,0.00,,,0.00,126.000000,,2013-02-18 18:43:00,
2013-02-18 13:53:00,31.0,26.0,-100.00,SSE,159,8.0,16.0,80,0.00,,,0.00,126.000000,,2013-02-18 18:53:00,
2013-02-18 14:03:00,31.0,26.0,-100.00,SSE,159,8.0,16.0,80,0.00,,,0.00,126.000000,,2013-02-18 19:03:00,
2013-02-18 14:12:00,32.0,27.0,-100.00,SSE,147,6.0,13.0,80,0.00,,,0.00,102.000000,,2013-02-18 19:12:00,
2013-02-18 14:43:00,32.0,27.0,-100.00,SSE,147,6.0,13.0,80,0.00,,,0.00,102.000000,,2013-02-18 19:43:00,
2013-02-18 14:53:00,32.0,27.0,-100.00,SSE,147,6.0,13.0,80,0.00,,,0.00,102.000000,,2013-02-18 19:53:00,
2013-02-18 15:02:00,32.0,27.0,-100.00,SSE,147,6.0,13.0,80,0.00,,,0.00,102.000000,,2013-02-18 20:02:00,
2013-02-18 16:12:00,34.0,29.0,-100.00,SSE,150,7.0,14.0,81,-99.99,,,0.00,101.000000,,2013-02-18 21:12:00,
2013-02-18 16:43:00,34.0,29.0,-100.00,SSE,150,7.0,14.0,81,-99.99,,,0.00,101.000000,,2013-02-18 21:43:00,
2013-02-18 16:53:00,34.0,29.0,-100.00,SSE,150,7.0,14.0,81,-99.99,,,0.00,101.000000,,2013-02-18 21:53:00,
2013-02-18 17:02:00,34.0,29.0,-100.00,SSE,150,7.0,14.0,81,-99.99,,,0.00,101.000000,,2013-02-18 22:02:00,
2013-02-18 18:12:00,34.0,29.0,-100.00,SSE,159,4.0,11.0,83,-99.99,,,0.00,31.000000,,2013-02-18 23:12:00,
2013-02-18 18:34:00,34.0,29.0,-100.00,SSE,159,4.0,11.0,83,-99.99,,,0.00,31.000000,,2013-02-18 23:34:00,
2013-02-18 18:43:00,34.0,29.0,-100.00,SSE,159,4.0,11.0,83,-99.99,,,0.00,31.000000,,2013-02-18 23:43:00,
2013-02-18 18:53:00,34.0,29.0,-100.00,SSE,159,4.0,11.0,83,-99.99,,,0.00,31.000000,,2013-02-18 23:53:00,
2013-02-18 19:03:00,34.0,29.0,-100.00,SSE,159,4.0,11.0,83,-99.99,,,0.00,31.000000,,2013-02-19 00:03:00,
2013-02-18 19:12:00,33.0,29.0,-100.00,SSE,159,2.0,10.0,84,0.00,,,0.00,0.000000,,2013-02-19 00:12:00,
2013-02-18 19:35:00,33.0,29.0,-100.00,SSE,159,2.0,10.0,84,0.00,,,0.00,0.000000,,2013-02-19 00:35:00,
2013-02-18 19:44:00,33.0,29.0,-100.00,SSE,159,2.0,10.0,84,0.00,,,0.00,0.000000,,2013-02-19 00:44:00,
2013-02-18 19:54:00,33.0,29.0,-100.00,SSE,159,2.0,10.0,84,0.00,,,0.00,0.000000,,2013-02-19 00:54:00,
2013-02-18 20:03:00,33.0,29.0,-100.00,SSE,159,2.0,10.0,84,0.00,,,0.00,0.000000,,2013-02-19 01:03:00,
2013-02-18 20:12:00,32.0,29.0,-100.00,SSE,156,0.0,5.0,87,0.00,,,-99.99,0.000000,,2013-02-19 01:12:00,
2013-02-18 20:45:00,32.0,29.0,-100.00,SSE,156,0.0,5.0,87,0.00,,,-99.99,0.000000,,2013-02-19 01:45:00,
2013-02-18 20:56:00,32.0,29.0,-100.00,SSE,156,0.0,5.0,87,0.00,,,-99.99,0.000000,,2013-02-19 01:56:00,
2013-02-18 21:03:00,32.0,29.0,-100.00,SSE,156,0.0,5.0,87,0.00,,,-99.99,0.000000,,2013-02-19 02:03:00,
2013-02-18 21:12:00,31.0,29.0,-100.00,SSE,168,1.0,3.0,94,0.00,,,0.00,0.000000,,2013-02-19 02:12:00,
2013-02-18 21:44:00,31.0,29.0,-100.00,SSE,168,1.0,3.0,94,0.00,,,0.00,0.000000,,2013-02-19 02:44:00,
2013-02-18 21:55:00,31.0,29.0,-100.00,SSE,168,1.0,3.0,94,0.00,,,0.00,0.000000,,2013-02-19 02:55:00,
2013-02-18 22:06:00,31.0,29.0,-100.00,SSE,168,1.0,3.0,94,0.00,,,0.00,0.000000,,2013-02-19 03:06:00,
2013-02-18 22:12:00,30.0,29.0,-100.00,North,8,0.0,2.0,95,0.00,,,0.00,0.000000,,2013-02-19 03:12:00,
2013-02-18 22:35:00,30.0,29.0,-100.00,North,8,0.0,2.0,95,0.00,,,0.00,0.000000,,2013-02-19 03:35:00,
2013-02-18 22:45:00,30.0,29.0,-100.00,North,8,0.0,2.0,95,0.00,,,0.00,0.000000,,2013-02-19 03:45:00,
2013-02-18 22:55:00,30.0,29.0,-100.00,North,8,0.0,2.0,95,0.00,,,0.00,0.000000,,2013-02-19 03:55:00,
2013-02-18 23:02:00,30.0,29.0,-100.00,North,8,0.0,2.0,95,0.00,,,0.00,0.000000,,2013-02-19 04:02:00,
2013-02-18 23:12:00,30.0,29.0,-100.00,North,350,0.0,0.0,96,0.00,,,-99.99,0.000000,,2013-02-19 04:12:00,
2013-02-18 23:34:00,30.0,29.0,-100.00,North,350,0.0,0.0,96,0.00,,,-99.99,0.000000,,2013-02-19 04:34:00,
2013-02-18 23:45:00,30.0,29.0,-100.00,North,350,0.0,0.0,96,0.00,,,-99.99,0.000000,,2013-02-19 04:45:00,
2013-02-18 23:55:00,30.0,29.0,-100.00,North,350,0.0,0.0,96,0.00,,,-99.99,0.000000,,2013-02-19 04:55:00,